sensor_id;sensor_type;location;lat;lon;timestamp;pressure;altitude;pressure_sealevel;temperature;humidity
53619;BME280;68717;53.040;18.488;2023-03-31T00:00:09;100083.13;;;11.57;100.00
53619;BME280;68717;53.040;18.488;2023-03-31T00:00:33;100094.91;;;11.64;100.00
53619;BME280;68717;53.040;18.488;2023-03-31T00:00:57;100093.94;;;11.65;100.00
53619;BME280;68717;53.040;18.488;2023-03-31T00:01:12;100085.88;;;11.65;100.00
53619;BME280;68717;53.040;18.488;2023-03-31T00:01:24;100087.94;;;11.72;100.00
53619;BME280;68717;53.040;18.488;2023-03-31T00:01:37;100087.75;;;11.73;100.00
53619;BME280;68717;53.040;18.488;2023-03-31T00:01:53;100087.63;;;11.75;100.00
53619;BME280;68717;53.040;18.488;2023-03-31T00:02:05;100087.06;;;11.71;100.00
53619;BME280;68717;53.040;18.488;2023-03-31T00:02:24;100080.34;;;11.67;100.00
53619;BME280;68717;53.040;18.488;2023-03-31T00:02:37;100082.50;;;11.63;100.00
53619;BME280;68717;53.040;18.488;2023-03-31T00:02:52;100088.34;;;11.59;100.00
53619;BME280;68717;53.040;18.488;2023-03-31T00:03:07;100082.44;;;11.55;100.00
53619;BME280;68717;53.040;18.488;2023-03-31T00:03:22;100084.41;;;11.53;100.00
53619;BME280;68717;53.040;18.488;2023-03-31T00:03:35;100088.25;;;11.50;100.00
53619;BME280;68717;53.040;18.488;2023-03-31T00:03:50;100082.34;;;11.47;100.00
53619;BME280;68717;53.040;18.488;2023-03-31T00:04:14;100081.84;;;11.43;100.00
53619;BME280;68717;53.040;18.488;2023-03-31T00:04:28;100089.28;;;11.49;100.00
53619;BME280;68717;53.040;18.488;2023-03-31T00:04:43;100080.22;;;11.50;100.00
53619;BME280;68717;53.040;18.488;2023-03-31T00:04:57;100082.19;;;11.48;100.00
53619;BME280;68717;53.040;18.488;2023-03-31T00:05:11;100086.03;;;11.46;100.00
53619;BME280;68717;53.040;18.488;2023-03-31T00:05:29;100079.97;;;11.44;100.00
53619;BME280;68717;53.040;18.488;2023-03-31T00:05:44;100088.19;;;11.42;100.00
53619;BME280;68717;53.040;18.488;2023-03-31T00:06:00;100081.97;;;11.42;100.00
53619;BME280;68717;53.040;18.488;2023-03-31T00:06:13;100075.91;;;11.40;100.00
53619;BME280;68717;53.040;18.488;2023-03-31T00:06:31;100079.63;;;11.39;100.00
53619;BME280;68717;53.040;18.488;2023-03-31T00:06:44;100069.31;;;11.34;100.00
53619;BME280;68717;53.040;18.488;2023-03-31T00:06:58;100081.28;;;11.40;100.00
53619;BME280;68717;53.040;18.488;2023-03-31T00:07:12;100082.31;;;11.39;100.00
53619;BME280;68717;53.040;18.488;2023-03-31T00:07:25;100072.69;;;11.36;100.00
53619;BME280;68717;53.040;18.488;2023-03-31T00:07:38;100077.31;;;11.44;100.00
53619;BME280;68717;53.040;18.488;2023-03-31T00:07:53;100079.53;;;11.48;100.00
53619;BME280;68717;53.040;18.488;2023-03-31T00:08:06;100086.63;;;11.58;100.00
53619;BME280;68717;53.040;18.488;2023-03-31T00:08:20;100086.50;;;11.59;100.00
53619;BME280;68717;53.040;18.488;2023-03-31T00:08:33;100083.19;;;11.65;100.00
53619;BME280;68717;53.040;18.488;2023-03-31T00:08:51;100081.66;;;11.63;100.00
53619;BME280;68717;53.040;18.488;2023-03-31T00:09:06;100081.13;;;11.59;100.00
53619;BME280;68717;53.040;18.488;2023-03-31T00:09:22;100077.06;;;11.55;100.00
53619;BME280;68717;53.040;18.488;2023-03-31T00:09:35;100085.25;;;11.54;100.00
53619;BME280;68717;53.040;18.488;2023-03-31T00:09:48;100084.56;;;11.52;100.00
53619;BME280;68717;53.040;18.488;2023-03-31T00:10:00;100083.91;;;11.49;100.00
53619;BME280;68717;53.040;18.488;2023-03-31T00:10:31;100080.69;;;11.46;100.00
53619;BME280;68717;53.040;18.488;2023-03-31T00:10:45;100077.44;;;11.42;100.00
53619;BME280;68717;53.040;18.488;2023-03-31T00:10:58;100080.28;;;11.41;100.00
53619;BME280;68717;53.040;18.488;2023-03-31T00:11:13;100078.59;;;11.40;100.00
53619;BME280;68717;53.040;18.488;2023-03-31T00:11:25;100085.13;;;11.37;100.00
53619;BME280;68717;53.040;18.488;2023-03-31T00:11:38;100084.44;;;11.35;100.00
53619;BME280;68717;53.040;18.488;2023-03-31T00:11:52;100079.75;;;11.37;100.00
53619;BME280;68717;53.040;18.488;2023-03-31T00:12:05;100080.69;;;11.46;100.00
53619;BME280;68717;53.040;18.488;2023-03-31T00:12:18;100078.00;;;11.46;100.00
53619;BME280;68717;53.040;18.488;2023-03-31T00:12:30;100078.00;;;11.46;100.00
53619;BME280;68717;53.040;18.488;2023-03-31T00:12:43;100073.59;;;11.45;100.00
53619;BME280;68717;53.040;18.488;2023-03-31T00:12:56;100079.97;;;11.44;100.00
53619;BME280;68717;53.040;18.488;2023-03-31T00:13:09;100080.13;;;11.42;100.00
53619;BME280;68717;53.040;18.488;2023-03-31T00:13:22;100078.59;;;11.40;100.00
53619;BME280;68717;53.040;18.488;2023-03-31T00:13:35;100081.28;;;11.40;100.00
53619;BME280;68717;53.040;18.488;2023-03-31T00:13:48;100076.94;;;11.39;100.00
53619;BME280;68717;53.040;18.488;2023-03-31T00:14:01;100077.91;;;11.38;100.00
53619;BME280;68717;53.040;18.488;2023-03-31T00:14:14;100077.06;;;11.37;100.00
53619;BME280;68717;53.040;18.488;2023-03-31T00:14:29;100079.06;;;11.35;100.00
53619;BME280;68717;53.040;18.488;2023-03-31T00:14:43;100085.97;;;11.38;100.00
53619;BME280;68717;53.040;18.488;2023-03-31T00:14:55;100083.44;;;11.36;100.00
53619;BME280;68717;53.040;18.488;2023-03-31T00:15:08;100081.75;;;11.35;100.00
53619;BME280;68717;53.040;18.488;2023-03-31T00:15:21;100089.66;;;11.37;100.00
53619;BME280;68717;53.040;18.488;2023-03-31T00:15:34;100085.13;;;11.37;100.00
53619;BME280;68717;53.040;18.488;2023-03-31T00:15:47;100089.34;;;11.40;100.00
53619;BME280;68717;53.040;18.488;2023-03-31T00:16:01;100095.03;;;11.37;100.00
53619;BME280;68717;53.040;18.488;2023-03-31T00:16:14;100091.47;;;11.36;100.00
53619;BME280;68717;53.040;18.488;2023-03-31T00:16:28;100088.50;;;11.39;100.00
53619;BME280;68717;53.040;18.488;2023-03-31T00:16:41;100095.41;;;11.42;100.00
53619;BME280;68717;53.040;18.488;2023-03-31T00:16:53;100091.00;;;11.41;100.00
53619;BME280;68717;53.040;18.488;2023-03-31T00:17:06;100099.25;;;11.39;100.00
53619;BME280;68717;53.040;18.488;2023-03-31T00:17:19;100092.34;;;11.37;100.00
53619;BME280;68717;53.040;18.488;2023-03-31T00:17:32;100090.63;;;11.36;100.00
53619;BME280;68717;53.040;18.488;2023-03-31T00:17:44;100088.97;;;11.35;100.00
53619;BME280;68717;53.040;18.488;2023-03-31T00:17:58;100093.31;;;11.36;100.00
53619;BME280;68717;53.040;18.488;2023-03-31T00:18:12;100091.88;;;11.41;100.00
53619;BME280;68717;53.040;18.488;2023-03-31T00:18:24;100095.78;;;11.47;100.00
53619;BME280;68717;53.040;18.488;2023-03-31T00:18:37;100098.63;;;11.45;100.00
53619;BME280;68717;53.040;18.488;2023-03-31T00:18:52;100098.16;;;11.50;100.00
53619;BME280;68717;53.040;18.488;2023-03-31T00:19:05;100107.88;;;11.51;100.00
53619;BME280;68717;53.040;18.488;2023-03-31T00:19:22;100099.69;;;11.53;100.00
53619;BME280;68717;53.040;18.488;2023-03-31T00:19:36;100102.06;;;11.56;100.00
53619;BME280;68717;53.040;18.488;2023-03-31T00:19:48;100105.44;;;11.58;100.00
53619;BME280;68717;53.040;18.488;2023-03-31T00:20:01;100099.59;;;11.62;100.00
53619;BME280;68717;53.040;18.488;2023-03-31T00:20:16;100099.59;;;11.62;100.00
53619;BME280;68717;53.040;18.488;2023-03-31T00:20:29;100102.44;;;11.61;100.00
53619;BME280;68717;53.040;18.488;2023-03-31T00:20:44;100101.91;;;11.57;100.00
53619;BME280;68717;53.040;18.488;2023-03-31T00:21:09;100105.06;;;11.53;100.00
53619;BME280;68717;53.040;18.488;2023-03-31T00:21:26;100106.91;;;11.52;100.00
53619;BME280;68717;53.040;18.488;2023-03-31T00:21:41;100103.91;;;11.55;100.00
53619;BME280;68717;53.040;18.488;2023-03-31T00:21:54;100101.44;;;11.62;100.00
53619;BME280;68717;53.040;18.488;2023-03-31T00:22:07;100100.81;;;11.68;100.00
53619;BME280;68717;53.040;18.488;2023-03-31T00:22:20;100099.66;;;11.70;100.00
53619;BME280;68717;53.040;18.488;2023-03-31T00:22:33;100099.81;;;11.69;100.00
53619;BME280;68717;53.040;18.488;2023-03-31T00:22:46;100097.31;;;11.67;100.00
53619;BME280;68717;53.040;18.488;2023-03-31T00:22:58;100098.97;;;11.68;100.00
53619;BME280;68717;53.040;18.488;2023-03-31T00:23:12;100100.34;;;11.73;100.00
53619;BME280;68717;53.040;18.488;2023-03-31T00:23:25;100096.97;;;11.70;100.00
53619;BME280;68717;53.040;18.488;2023-03-31T00:23:39;100097.44;;;11.66;100.00
53619;BME280;68717;53.040;18.488;2023-03-31T00:23:54;100099.44;;;11.64;100.00
53619;BME280;68717;53.040;18.488;2023-03-31T00:24:09;100100.06;;;11.58;100.00
53619;BME280;68717;53.040;18.488;2023-03-31T00:24:22;100099.38;;;11.56;100.00
53619;BME280;68717;53.040;18.488;2023-03-31T00:24:35;100103.06;;;11.55;100.00
53619;BME280;68717;53.040;18.488;2023-03-31T00:24:47;100105.28;;;11.59;100.00
53619;BME280;68717;53.040;18.488;2023-03-31T00:25:00;100100.97;;;11.66;100.00
53619;BME280;68717;53.040;18.488;2023-03-31T00:25:14;100110.25;;;11.72;100.00
53619;BME280;68717;53.040;18.488;2023-03-31T00:25:27;100100.91;;;11.76;100.00
53619;BME280;68717;53.040;18.488;2023-03-31T00:25:40;100103.72;;;11.75;100.00
53619;BME280;68717;53.040;18.488;2023-03-31T00:25:53;100100.72;;;11.78;100.00
53619;BME280;68717;53.040;18.488;2023-03-31T00:26:06;100103.09;;;11.81;100.00
53619;BME280;68717;53.040;18.488;2023-03-31T00:26:19;100102.56;;;11.77;100.00
53619;BME280;68717;53.040;18.488;2023-03-31T00:26:34;100104.75;;;11.74;100.00
53619;BME280;68717;53.040;18.488;2023-03-31T00:26:47;100104.06;;;11.72;100.00
53619;BME280;68717;53.040;18.488;2023-03-31T00:27:01;100110.53;;;11.69;100.00
53619;BME280;68717;53.040;18.488;2023-03-31T00:27:14;100105.50;;;11.66;100.00
53619;BME280;68717;53.040;18.488;2023-03-31T00:27:27;100100.75;;;11.60;100.00
53619;BME280;68717;53.040;18.488;2023-03-31T00:27:41;100106.28;;;11.58;100.00
53619;BME280;68717;53.040;18.488;2023-03-31T00:27:55;100101.22;;;11.55;100.00
53619;BME280;68717;53.040;18.488;2023-03-31T00:28:08;100097.91;;;11.61;100.00
53619;BME280;68717;53.040;18.488;2023-03-31T00:28:21;100102.59;;;11.59;100.00
53619;BME280;68717;53.040;18.488;2023-03-31T00:28:34;100099.38;;;11.56;100.00
53619;BME280;68717;53.040;18.488;2023-03-31T00:28:47;100100.53;;;11.53;100.00
53619;BME280;68717;53.040;18.488;2023-03-31T00:29:00;100105.06;;;11.53;100.00
53619;BME280;68717;53.040;18.488;2023-03-31T00:29:12;100101.06;;;11.57;100.00
53619;BME280;68717;53.040;18.488;2023-03-31T00:29:25;100092.31;;;11.55;100.00
53619;BME280;68717;53.040;18.488;2023-03-31T00:29:39;100101.34;;;11.54;100.00
53619;BME280;68717;53.040;18.488;2023-03-31T00:29:52;100104.13;;;11.62;100.00
53619;BME280;68717;53.040;18.488;2023-03-31T00:30:07;100100.59;;;11.61;100.00
53619;BME280;68717;53.040;18.488;2023-03-31T00:30:20;100100.94;;;11.58;100.00
53619;BME280;68717;53.040;18.488;2023-03-31T00:30:32;100103.91;;;11.55;100.00
53619;BME280;68717;53.040;18.488;2023-03-31T00:30:45;100101.91;;;11.57;100.00
53619;BME280;68717;53.040;18.488;2023-03-31T00:30:59;100104.44;;;11.59;100.00
53619;BME280;68717;53.040;18.488;2023-03-31T00:31:14;100107.59;;;11.54;100.00
53619;BME280;68717;53.040;18.488;2023-03-31T00:31:28;100104.22;;;11.52;100.00
53619;BME280;68717;53.040;18.488;2023-03-31T00:31:40;100101.69;;;11.50;100.00
53619;BME280;68717;53.040;18.488;2023-03-31T00:31:54;100104.22;;;11.52;100.00
53619;BME280;68717;53.040;18.488;2023-03-31T00:32:06;100100.53;;;11.53;100.00
53619;BME280;68717;53.040;18.488;2023-03-31T00:32:19;100102.22;;;11.54;100.00
53619;BME280;68717;53.040;18.488;2023-03-31T00:32:32;100099.84;;;11.51;100.00
53619;BME280;68717;53.040;18.488;2023-03-31T00:32:45;100098.84;;;11.52;100.00
53619;BME280;68717;53.040;18.488;2023-03-31T00:32:58;100100.84;;;11.50;100.00
53619;BME280;68717;53.040;18.488;2023-03-31T00:33:11;100098.16;;;11.50;100.00
53619;BME280;68717;53.040;18.488;2023-03-31T00:33:24;100098.16;;;11.50;100.00
53619;BME280;68717;53.040;18.488;2023-03-31T00:33:37;100103.34;;;11.52;100.00
53619;BME280;68717;53.040;18.488;2023-03-31T00:33:50;100095.16;;;11.53;100.00
53619;BME280;68717;53.040;18.488;2023-03-31T00:34:04;100098.84;;;11.52;100.00
53619;BME280;68717;53.040;18.488;2023-03-31T00:34:17;100098.16;;;11.50;100.00
53619;BME280;68717;53.040;18.488;2023-03-31T00:34:31;100100.84;;;11.50;100.00
53619;BME280;68717;53.040;18.488;2023-03-31T00:34:44;100102.84;;;11.48;100.00
53619;BME280;68717;53.040;18.488;2023-03-31T00:34:57;100099.16;;;11.49;100.00
53619;BME280;68717;53.040;18.488;2023-03-31T00:35:10;100100.84;;;11.50;100.00
53619;BME280;68717;53.040;18.488;2023-03-31T00:35:23;100102.53;;;11.51;100.00
53619;BME280;68717;53.040;18.488;2023-03-31T00:35:36;100099.16;;;11.49;100.00
53619;BME280;68717;53.040;18.488;2023-03-31T00:35:50;100102.84;;;11.48;100.00
53619;BME280;68717;53.040;18.488;2023-03-31T00:36:04;100103.13;;;11.45;100.00
53619;BME280;68717;53.040;18.488;2023-03-31T00:36:18;100106.34;;;11.48;100.00
53619;BME280;68717;53.040;18.488;2023-03-31T00:36:33;100096.94;;;11.44;100.00
53619;BME280;68717;53.040;18.488;2023-03-31T00:36:48;100097.25;;;11.41;100.00
53619;BME280;68717;53.040;18.488;2023-03-31T00:37:00;100099.38;;;11.38;100.00
53619;BME280;68717;53.040;18.488;2023-03-31T00:37:15;100097.38;;;11.40;100.00
53619;BME280;68717;53.040;18.488;2023-03-31T00:37:27;100094.34;;;11.35;100.00
53619;BME280;68717;53.040;18.488;2023-03-31T00:37:40;100089.94;;;11.34;100.00
53619;BME280;68717;53.040;18.488;2023-03-31T00:37:54;100095.31;;;11.34;100.00
53619;BME280;68717;53.040;18.488;2023-03-31T00:38:09;100091.09;;;11.31;100.00
53619;BME280;68717;53.040;18.488;2023-03-31T00:38:25;100090.28;;;11.31;100.00
53619;BME280;68717;53.040;18.488;2023-03-31T00:38:40;100094.16;;;11.36;100.00
53619;BME280;68717;53.040;18.488;2023-03-31T00:38:58;100093.69;;;11.41;100.00
53619;BME280;68717;53.040;18.488;2023-03-31T00:39:12;100096.69;;;11.38;100.00
53619;BME280;68717;53.040;18.488;2023-03-31T00:39:26;100098.44;;;11.47;100.00
53619;BME280;68717;53.040;18.488;2023-03-31T00:39:43;100094.09;;;11.46;100.00
53619;BME280;68717;53.040;18.488;2023-03-31T00:39:55;100098.78;;;11.44;100.00
53619;BME280;68717;53.040;18.488;2023-03-31T00:40:09;100096.09;;;11.44;100.00
53619;BME280;68717;53.040;18.488;2023-03-31T00:40:22;100093.47;;;11.52;100.00
53619;BME280;68717;53.040;18.488;2023-03-31T00:40:35;100097.16;;;11.51;100.00
53619;BME280;68717;53.040;18.488;2023-03-31T00:40:48;100095.78;;;11.47;100.00
53619;BME280;68717;53.040;18.488;2023-03-31T00:41:04;100095.25;;;11.43;100.00
53619;BME280;68717;53.040;18.488;2023-03-31T00:41:17;100092.72;;;11.42;100.00
53619;BME280;68717;53.040;18.488;2023-03-31T00:41:30;100094.09;;;11.46;100.00
53619;BME280;68717;53.040;18.488;2023-03-31T00:41:43;100094.38;;;11.43;100.00
53619;BME280;68717;53.040;18.488;2023-03-31T00:41:57;100090.03;;;11.42;100.00
53619;BME280;68717;53.040;18.488;2023-03-31T00:42:10;100093.41;;;11.44;100.00
53619;BME280;68717;53.040;18.488;2023-03-31T00:42:25;100090.78;;;11.34;100.00
53619;BME280;68717;53.040;18.488;2023-03-31T00:42:40;100089.53;;;11.28;100.00
53619;BME280;68717;53.040;18.488;2023-03-31T00:42:53;100086.56;;;11.32;100.00
53619;BME280;68717;53.040;18.488;2023-03-31T00:43:23;100087.59;;;11.31;100.00
53619;BME280;68717;53.040;18.488;2023-03-31T00:43:37;100090.19;;;11.40;100.00
53619;BME280;68717;53.040;18.488;2023-03-31T00:44:08;100083.44;;;11.36;100.00
53619;BME280;68717;53.040;18.488;2023-03-31T00:44:22;100082.91;;;11.33;100.00
53619;BME280;68717;53.040;18.488;2023-03-31T00:44:38;100080.66;;;11.28;100.00
53619;BME280;68717;53.040;18.488;2023-03-31T00:45:23;100082.09;;;11.22;100.00
53619;BME280;68717;53.040;18.488;2023-03-31T00:45:37;100085.09;;;11.19;100.00
53619;BME280;68717;53.040;18.488;2023-03-31T00:45:50;100088.91;;;11.17;100.00
53619;BME280;68717;53.040;18.488;2023-03-31T00:46:11;100087.25;;;11.16;100.00
53619;BME280;68717;53.040;18.488;2023-03-31T00:46:30;100082.00;;;11.14;100.00
53619;BME280;68717;53.040;18.488;2023-03-31T00:46:50;100086.00;;;11.10;100.00
53619;BME280;68717;53.040;18.488;2023-03-31T00:47:06;100080.50;;;11.12;100.00
53619;BME280;68717;53.040;18.488;2023-03-31T00:47:22;100085.00;;;11.11;100.00
53619;BME280;68717;53.040;18.488;2023-03-31T00:47:36;100086.41;;;11.15;100.00
53619;BME280;68717;53.040;18.488;2023-03-31T00:47:51;100078.03;;;11.18;100.00
53619;BME280;68717;53.040;18.488;2023-03-31T00:48:08;100085.25;;;11.18;100.00
53619;BME280;68717;53.040;18.488;2023-03-31T00:48:26;100087.09;;;11.17;100.00
53619;BME280;68717;53.040;18.488;2023-03-31T00:48:41;100089.47;;;11.20;100.00
53619;BME280;68717;53.040;18.488;2023-03-31T00:48:57;100087.09;;;11.17;100.00
53619;BME280;68717;53.040;18.488;2023-03-31T00:49:15;100085.38;;;11.16;100.00
53619;BME280;68717;53.040;18.488;2023-03-31T00:49:36;100087.09;;;11.17;100.00
53619;BME280;68717;53.040;18.488;2023-03-31T00:49:55;100086.41;;;11.15;100.00
53619;BME280;68717;53.040;18.488;2023-03-31T00:50:13;100078.72;;;11.20;100.00
53619;BME280;68717;53.040;18.488;2023-03-31T00:50:30;100084.41;;;11.17;100.00
53619;BME280;68717;53.040;18.488;2023-03-31T00:50:48;100090.91;;;11.15;100.00
53619;BME280;68717;53.040;18.488;2023-03-31T00:51:04;100085.09;;;11.19;100.00
53619;BME280;68717;53.040;18.488;2023-03-31T00:51:19;100087.47;;;11.22;100.00
53619;BME280;68717;53.040;18.488;2023-03-31T00:51:33;100087.16;;;11.25;100.00
53619;BME280;68717;53.040;18.488;2023-03-31T00:51:48;100089.84;;;11.25;100.00
53619;BME280;68717;53.040;18.488;2023-03-31T00:52:04;100079.78;;;11.27;100.00
53619;BME280;68717;53.040;18.488;2023-03-31T00:52:21;100092.13;;;11.30;100.00
53619;BME280;68717;53.040;18.488;2023-03-31T00:52:35;100084.91;;;11.31;100.00
53619;BME280;68717;53.040;18.488;2023-03-31T00:52:52;100082.38;;;11.29;100.00
53619;BME280;68717;53.040;18.488;2023-03-31T00:53:09;100081.78;;;11.25;100.00
53619;BME280;68717;53.040;18.488;2023-03-31T00:53:27;100087.47;;;11.22;100.00
53619;BME280;68717;53.040;18.488;2023-03-31T00:53:41;100079.56;;;11.21;100.00
53619;BME280;68717;53.040;18.488;2023-03-31T00:53:56;100078.41;;;11.23;100.00
53619;BME280;68717;53.040;18.488;2023-03-31T00:54:11;100084.09;;;11.20;100.00
53619;BME280;68717;53.040;18.488;2023-03-31T00:54:25;100086.31;;;11.25;100.00
53619;BME280;68717;53.040;18.488;2023-03-31T00:54:42;100082.59;;;11.36;100.00
53619;BME280;68717;53.040;18.488;2023-03-31T00:54:57;100078.38;;;11.33;100.00
53619;BME280;68717;53.040;18.488;2023-03-31T00:55:22;100072.69;;;11.36;100.00
53619;BME280;68717;53.040;18.488;2023-03-31T00:55:39;100078.94;;;11.37;100.00
53619;BME280;68717;53.040;18.488;2023-03-31T00:55:54;100075.22;;;11.38;100.00
53619;BME280;68717;53.040;18.488;2023-03-31T00:56:12;100073.94;;;11.42;100.00
53619;BME280;68717;53.040;18.488;2023-03-31T00:56:28;100076.69;;;11.50;100.00
53619;BME280;68717;53.040;18.488;2023-03-31T00:56:44;100076.84;;;11.48;100.00
53619;BME280;68717;53.040;18.488;2023-03-31T00:56:59;100074.63;;;11.44;100.00
53619;BME280;68717;53.040;18.488;2023-03-31T00:57:15;100071.25;;;11.42;100.00
53619;BME280;68717;53.040;18.488;2023-03-31T00:57:30;100073.25;;;11.40;100.00
53619;BME280;68717;53.040;18.488;2023-03-31T00:57:50;100082.66;;;11.44;100.00
53619;BME280;68717;53.040;18.488;2023-03-31T00:58:05;100073.78;;;11.43;100.00
53619;BME280;68717;53.040;18.488;2023-03-31T00:58:20;100073.59;;;11.45;100.00
53619;BME280;68717;53.040;18.488;2023-03-31T00:58:40;100073.94;;;11.42;100.00
53619;BME280;68717;53.040;18.488;2023-03-31T00:59:01;100074.28;;;11.47;100.00
53619;BME280;68717;53.040;18.488;2023-03-31T00:59:14;100078.97;;;11.45;100.00
53619;BME280;68717;53.040;18.488;2023-03-31T00:59:30;100070.56;;;11.40;100.00
53619;BME280;68717;53.040;18.488;2023-03-31T00:59:48;100069.72;;;11.39;100.00
53619;BME280;68717;53.040;18.488;2023-03-31T01:00:05;100068.72;;;11.40;100.00
53619;BME280;68717;53.040;18.488;2023-03-31T01:00:21;100068.19;;;11.37;100.00
53619;BME280;68717;53.040;18.488;2023-03-31T01:00:35;100067.50;;;11.35;100.00
53619;BME280;68717;53.040;18.488;2023-03-31T01:00:48;100072.47;;;11.29;100.00
53619;BME280;68717;53.040;18.488;2023-03-31T01:01:04;100067.97;;;11.30;100.00
53619;BME280;68717;53.040;18.488;2023-03-31T01:01:19;100064.72;;;11.26;100.00
53619;BME280;68717;53.040;18.488;2023-03-31T01:01:37;100062.03;;;11.26;100.00
53619;BME280;68717;53.040;18.488;2023-03-31T01:01:55;100068.69;;;11.22;100.00
53619;BME280;68717;53.040;18.488;2023-03-31T01:02:11;100075.06;;;11.21;100.00
53619;BME280;68717;53.040;18.488;2023-03-31T01:02:26;100073.38;;;11.20;100.00
53619;BME280;68717;53.040;18.488;2023-03-31T01:02:40;100076.19;;;11.19;100.00
53619;BME280;68717;53.040;18.488;2023-03-31T01:03:05;100079.09;;;11.25;100.00
53619;BME280;68717;53.040;18.488;2023-03-31T01:03:21;100072.75;;;11.26;100.00
53619;BME280;68717;53.040;18.488;2023-03-31T01:03:34;100078.25;;;11.25;100.00
53619;BME280;68717;53.040;18.488;2023-03-31T01:03:49;100073.03;;;11.23;100.00
53619;BME280;68717;53.040;18.488;2023-03-31T01:04:05;100076.88;;;11.21;100.00
53619;BME280;68717;53.040;18.488;2023-03-31T01:04:19;100075.22;;;11.20;100.00
53619;BME280;68717;53.040;18.488;2023-03-31T01:04:39;100076.72;;;11.22;100.00
53619;BME280;68717;53.040;18.488;2023-03-31T01:04:55;100081.25;;;11.22;100.00
53619;BME280;68717;53.040;18.488;2023-03-31T01:05:10;100078.97;;;11.27;100.00
53619;BME280;68717;53.040;18.488;2023-03-31T01:05:26;100080.91;;;11.35;100.00
53619;BME280;68717;53.040;18.488;2023-03-31T01:05:43;100080.06;;;11.34;100.00
53619;BME280;68717;53.040;18.488;2023-03-31T01:05:59;100073.84;;;11.34;100.00
53619;BME280;68717;53.040;18.488;2023-03-31T01:06:16;100081.06;;;11.33;100.00
53619;BME280;68717;53.040;18.488;2023-03-31T01:06:31;100089.94;;;11.34;100.00
53619;BME280;68717;53.040;18.488;2023-03-31T01:06:52;100078.38;;;11.33;100.00
53619;BME280;68717;53.040;18.488;2023-03-31T01:07:13;100086.75;;;11.30;100.00
53619;BME280;68717;53.040;18.488;2023-03-31T01:07:33;100087.00;;;11.27;100.00
53619;BME280;68717;53.040;18.488;2023-03-31T01:07:50;100081.50;;;11.28;100.00
53619;BME280;68717;53.040;18.488;2023-03-31T01:08:04;100086.56;;;11.32;100.00
53619;BME280;68717;53.040;18.488;2023-03-31T01:08:18;100077.00;;;11.29;100.00
53619;BME280;68717;53.040;18.488;2023-03-31T01:08:36;100084.19;;;11.28;100.00
53619;BME280;68717;53.040;18.488;2023-03-31T01:08:51;100081.75;;;11.35;100.00
53619;BME280;68717;53.040;18.488;2023-03-31T01:09:03;100087.81;;;11.37;100.00
53619;BME280;68717;53.040;18.488;2023-03-31T01:09:18;100077.22;;;11.36;100.00
53619;BME280;68717;53.040;18.488;2023-03-31T01:09:31;100082.59;;;11.36;100.00
53619;BME280;68717;53.040;18.488;2023-03-31T01:09:47;100081.22;;;11.32;100.00
53619;BME280;68717;53.040;18.488;2023-03-31T01:10:02;100079.53;;;11.31;100.00
53619;BME280;68717;53.040;18.488;2023-03-31T01:10:16;100079.78;;;11.27;100.00
53619;BME280;68717;53.040;18.488;2023-03-31T01:10:33;100082.03;;;11.32;100.00
53619;BME280;68717;53.040;18.488;2023-03-31T01:10:55;100084.28;;;11.37;100.00
53619;BME280;68717;53.040;18.488;2023-03-31T01:11:09;100082.31;;;11.39;100.00
53619;BME280;68717;53.040;18.488;2023-03-31T01:11:25;100078.06;;;11.36;100.00
53619;BME280;68717;53.040;18.488;2023-03-31T01:11:39;100084.44;;;11.35;100.00
53619;BME280;68717;53.040;18.488;2023-03-31T01:11:53;100075.84;;;11.32;100.00
53619;BME280;68717;53.040;18.488;2023-03-31T01:12:07;100078.38;;;11.33;100.00
53619;BME280;68717;53.040;18.488;2023-03-31T01:12:21;100084.59;;;11.34;100.00
53619;BME280;68717;53.040;18.488;2023-03-31T01:12:37;100078.53;;;11.32;100.00
53619;BME280;68717;53.040;18.488;2023-03-31T01:12:53;100080.66;;;11.28;100.00
53619;BME280;68717;53.040;18.488;2023-03-31T01:13:07;100077.09;;;11.27;100.00
53619;BME280;68717;53.040;18.488;2023-03-31T01:13:21;100080.09;;;11.24;100.00
53619;BME280;68717;53.040;18.488;2023-03-31T01:13:37;100078.13;;;11.26;100.00
53619;BME280;68717;53.040;18.488;2023-03-31T01:13:53;100081.78;;;11.25;100.00
53619;BME280;68717;53.040;18.488;2023-03-31T01:14:07;100078.41;;;11.23;100.00
53619;BME280;68717;53.040;18.488;2023-03-31T01:14:21;100079.28;;;11.24;100.00
53619;BME280;68717;53.040;18.488;2023-03-31T01:14:34;100079.09;;;11.25;100.00
53619;BME280;68717;53.040;18.488;2023-03-31T01:14:48;100072.69;;;11.36;100.00
53619;BME280;68717;53.040;18.488;2023-03-31T01:15:03;100078.94;;;11.37;100.00
53619;BME280;68717;53.040;18.488;2023-03-31T01:15:18;100080.28;;;11.41;100.00
53619;BME280;68717;53.040;18.488;2023-03-31T01:15:31;100082.31;;;11.39;100.00
53619;BME280;68717;53.040;18.488;2023-03-31T01:15:44;100077.22;;;11.36;100.00
53619;BME280;68717;53.040;18.488;2023-03-31T01:15:57;100081.28;;;11.40;100.00
53619;BME280;68717;53.040;18.488;2023-03-31T01:16:09;100074.53;;;11.36;100.00
53619;BME280;68717;53.040;18.488;2023-03-31T01:16:22;100081.91;;;11.34;100.00